createdAt,value
2022-11-13T00:00:43.641Z,2.22
2022-11-13T00:01:43.644Z,2.22
2022-11-13T00:02:43.649Z,2.19
2022-11-13T00:03:43.589Z,2.12
2022-11-13T00:04:43.532Z,2.22
2022-11-13T00:05:43.505Z,2.22
2022-11-13T00:06:43.530Z,2.19
2022-11-13T00:07:43.455Z,2.17
2022-11-13T00:08:43.526Z,2.19
2022-11-13T00:09:43.421Z,2.22
2022-11-13T00:10:43.372Z,2.20
2022-11-13T00:11:43.353Z,2.27
2022-11-13T00:12:43.346Z,2.27
2022-11-13T00:13:43.294Z,2.19
2022-11-13T00:14:43.271Z,2.15
2022-11-13T00:15:43.263Z,2.20
2022-11-13T00:16:43.216Z,2.15
2022-11-13T00:17:43.222Z,2.26
2022-11-13T00:18:43.170Z,2.20
2022-11-13T00:19:43.143Z,2.20
2022-11-13T00:20:43.145Z,2.26
2022-11-13T00:21:43.112Z,2.28
2022-11-13T00:22:43.060Z,2.17
2022-11-13T00:23:43.061Z,2.26
2022-11-13T00:24:43.117Z,2.19
2022-11-13T00:25:42.976Z,2.15
2022-11-13T00:26:42.982Z,2.19
2022-11-13T00:27:42.965Z,2.23
2022-11-13T00:28:42.908Z,2.17
2022-11-13T00:29:42.894Z,2.20
2022-11-13T00:30:42.850Z,2.16
2022-11-13T00:31:42.849Z,2.17
2022-11-13T00:32:42.819Z,2.23
2022-11-13T00:34:09.026Z,2.17
2022-11-13T00:34:49.994Z,2.20
2022-11-13T00:35:42.728Z,2.23
2022-11-13T00:36:42.698Z,2.17
2022-11-13T00:37:42.674Z,2.17
2022-11-13T00:38:42.641Z,2.04
2022-11-13T00:39:42.651Z,2.09
2022-11-13T00:40:42.704Z,2.17
2022-11-13T00:41:42.563Z,2.19
2022-11-13T00:42:42.548Z,2.20
2022-11-13T00:43:42.512Z,2.26
2022-11-13T00:44:42.484Z,2.28
2022-11-13T00:45:42.457Z,2.23
2022-11-13T00:46:42.444Z,2.37
2022-11-13T00:47:42.413Z,2.46
2022-11-13T00:48:42.377Z,2.38
2022-11-13T00:49:42.351Z,2.38
2022-11-13T00:50:42.326Z,2.38
2022-11-13T00:51:42.321Z,2.35
2022-11-13T00:52:42.272Z,2.40
2022-11-13T00:53:42.245Z,2.44
2022-11-13T00:54:42.251Z,2.48
2022-11-13T00:55:42.192Z,2.45
2022-11-13T00:56:42.258Z,2.44
2022-11-13T00:57:42.143Z,2.52
2022-11-13T00:58:42.112Z,2.55
2022-11-13T00:59:42.109Z,2.59
2022-11-13T01:00:42.071Z,2.61
2022-11-13T01:01:42.115Z,2.66
2022-11-13T01:02:42.030Z,2.61
2022-11-13T01:03:41.986Z,2.64
2022-11-13T01:04:41.968Z,2.73
2022-11-13T01:05:41.958Z,2.63
2022-11-13T01:06:41.923Z,2.63
2022-11-13T01:07:41.881Z,2.71
2022-11-13T01:08:41.855Z,2.76
2022-11-13T01:09:41.840Z,2.81
2022-11-13T01:10:42.329Z,2.82
2022-11-13T01:11:41.787Z,2.77
2022-11-13T01:12:41.842Z,2.82
2022-11-13T01:13:41.742Z,2.87
2022-11-13T01:14:41.698Z,2.87
2022-11-13T01:15:41.670Z,2.94
2022-11-13T01:16:41.649Z,3.07
2022-11-13T01:17:41.618Z,3.02
2022-11-13T01:18:41.602Z,2.95
2022-11-13T01:19:41.577Z,3.06
2022-11-13T01:20:41.544Z,3.07
2022-11-13T01:21:41.536Z,3.07
2022-11-13T01:22:41.491Z,3.07
2022-11-13T01:23:41.469Z,3.12
2022-11-13T01:24:41.454Z,3.09
2022-11-13T01:25:41.420Z,3.07
2022-11-13T01:26:41.382Z,3.12
2022-11-13T01:27:41.363Z,3.06
2022-11-13T01:28:41.462Z,3.06
2022-11-13T01:29:41.311Z,3.09
2022-11-13T01:30:41.280Z,3.12
2022-11-13T01:31:41.293Z,3.09
2022-11-13T01:32:41.225Z,3.05
2022-11-13T01:33:41.210Z,3.12
2022-11-13T01:34:41.197Z,3.15
2022-11-13T01:35:41.179Z,3.07
2022-11-13T01:36:41.139Z,3.09
2022-11-13T01:37:41.126Z,3.20
2022-11-13T01:38:41.099Z,3.25
2022-11-13T01:39:41.054Z,3.23
2022-11-13T01:40:41.022Z,3.25
2022-11-13T01:41:40.999Z,3.24
2022-11-13T01:42:40.973Z,3.36
2022-11-13T01:43:40.953Z,3.25
2022-11-13T01:44:41.010Z,3.33
2022-11-13T01:45:40.900Z,3.25
2022-11-13T01:46:40.873Z,3.23
2022-11-13T01:47:40.843Z,3.27
2022-11-13T01:48:40.826Z,3.40
2022-11-13T01:49:40.787Z,3.23
2022-11-13T01:50:40.767Z,3.33
2022-11-13T01:51:40.740Z,3.34
2022-11-13T01:52:40.708Z,3.31
2022-11-13T01:53:40.685Z,3.36
2022-11-13T01:54:40.690Z,3.43
2022-11-13T01:55:40.627Z,3.31
2022-11-13T01:56:40.613Z,3.33
2022-11-13T01:57:40.583Z,3.31
2022-11-13T01:58:40.551Z,3.34
2022-11-13T01:59:40.546Z,3.33
2022-11-13T02:00:40.593Z,3.39
2022-11-13T02:01:40.517Z,3.33
2022-11-13T02:02:40.452Z,3.34
2022-11-13T02:03:40.431Z,3.25
2022-11-13T02:04:40.401Z,3.25
2022-11-13T02:05:40.393Z,3.30
2022-11-13T02:06:40.374Z,3.31
2022-11-13T02:07:40.353Z,3.18
2022-11-13T02:08:40.324Z,3.06
2022-11-13T02:09:40.265Z,3.07
2022-11-13T02:10:40.260Z,3.09
2022-11-13T02:11:40.233Z,3.09
2022-11-13T02:12:40.203Z,3.07
2022-11-13T02:13:40.180Z,3.07
2022-11-13T02:14:40.137Z,3.06
2022-11-13T02:15:40.119Z,3.06
2022-11-13T02:16:40.176Z,3.06
2022-11-13T02:17:40.067Z,3.10
2022-11-13T02:18:40.043Z,3.06
2022-11-13T02:19:40.012Z,3.06
2022-11-13T02:20:39.989Z,3.09
2022-11-13T02:21:39.965Z,3.03
2022-11-13T02:22:39.945Z,3.06
2022-11-13T02:23:39.920Z,2.98
2022-11-13T02:24:44.634Z,3.02
2022-11-13T02:25:39.854Z,3.07
2022-11-13T02:26:39.829Z,3.15
2022-11-13T02:27:39.805Z,3.03
2022-11-13T02:28:39.828Z,3.00
2022-11-13T02:29:39.749Z,3.05
2022-11-13T02:30:39.767Z,3.03
2022-11-13T02:31:39.703Z,3.00
2022-11-13T02:32:39.769Z,2.98
2022-11-13T02:33:39.653Z,3.05
2022-11-13T02:34:39.629Z,3.07
2022-11-13T02:35:39.601Z,3.05
2022-11-13T02:36:39.563Z,3.05
2022-11-13T02:37:39.550Z,3.06
2022-11-13T02:38:39.535Z,3.00
2022-11-13T02:39:39.489Z,3.06
2022-11-13T02:40:39.476Z,3.06
2022-11-13T02:41:39.444Z,3.06
2022-11-13T02:42:39.417Z,3.06
2022-11-13T02:43:39.418Z,3.07
2022-11-13T02:44:39.371Z,3.07
2022-11-13T02:45:39.333Z,3.07
2022-11-13T02:46:39.318Z,3.07
2022-11-13T02:47:39.287Z,3.07
2022-11-13T02:48:39.365Z,3.10
2022-11-13T02:49:39.252Z,3.20
2022-11-13T02:50:39.206Z,3.20
2022-11-13T02:51:39.189Z,3.24
2022-11-13T02:52:39.213Z,3.18
2022-11-13T02:53:39.128Z,3.20
2022-11-13T02:54:39.103Z,3.12
2022-11-13T02:55:39.077Z,3.16
2022-11-13T02:56:39.078Z,3.18
2022-11-13T02:57:39.029Z,3.21
2022-11-13T02:58:39.006Z,3.20
2022-11-13T02:59:38.992Z,3.18
2022-11-13T03:00:38.954Z,3.21
2022-11-13T03:01:38.977Z,3.21
2022-11-13T03:02:38.914Z,3.18
2022-11-13T03:03:57.193Z,3.23
2022-11-13T03:05:10.398Z,3.16
2022-11-13T03:05:38.833Z,3.25
2022-11-13T03:06:38.864Z,3.25
2022-11-13T03:07:38.771Z,3.16
2022-11-13T03:08:39.013Z,3.23
2022-11-13T03:09:38.713Z,3.24
2022-11-13T03:10:38.687Z,3.25
2022-11-13T03:11:38.668Z,3.18
2022-11-13T03:12:38.641Z,3.24
2022-11-13T03:13:38.611Z,3.24
2022-11-13T03:14:38.584Z,3.24
2022-11-13T03:15:38.557Z,3.31
2022-11-13T03:16:38.534Z,3.31
2022-11-13T03:17:38.518Z,3.28
2022-11-13T03:18:38.488Z,3.25
2022-11-13T03:19:38.452Z,3.21
2022-11-13T03:20:38.525Z,3.25
2022-11-13T03:21:38.399Z,3.27
2022-11-13T03:22:38.378Z,3.30
2022-11-13T03:23:38.358Z,3.25
2022-11-13T03:24:38.322Z,3.36
2022-11-13T03:25:38.298Z,3.40
2022-11-13T03:26:38.295Z,3.33
2022-11-13T03:27:38.263Z,3.39
2022-11-13T03:28:38.227Z,3.27
2022-11-13T03:29:38.199Z,3.24
2022-11-13T03:30:38.166Z,3.25
2022-11-13T03:31:38.152Z,3.33
2022-11-13T03:32:38.121Z,3.33
2022-11-13T03:33:38.100Z,3.30
2022-11-13T03:34:38.079Z,3.40
2022-11-13T03:35:44.245Z,3.40
2022-11-13T03:36:38.111Z,3.47
2022-11-13T03:37:37.993Z,3.43
2022-11-13T03:38:37.964Z,3.34
2022-11-13T03:39:37.940Z,3.36
2022-11-13T03:40:37.926Z,3.27
2022-11-13T03:41:37.886Z,3.30
2022-11-13T03:42:37.858Z,3.25
2022-11-13T03:43:37.836Z,3.24
2022-11-13T03:44:37.827Z,3.30
2022-11-13T03:45:37.781Z,3.30
2022-11-13T03:46:37.757Z,3.23
2022-11-13T03:47:37.736Z,3.25
2022-11-13T03:48:37.705Z,3.25
2022-11-13T03:49:37.676Z,3.27
2022-11-13T03:50:42.789Z,3.25
2022-11-13T03:51:37.625Z,3.36
2022-11-13T03:52:37.694Z,3.36
2022-11-13T03:53:37.577Z,3.43
2022-11-13T03:54:37.542Z,3.25
2022-11-13T03:55:37.530Z,3.25
2022-11-13T03:56:37.496Z,3.33
2022-11-13T03:57:37.471Z,3.40
2022-11-13T03:58:40.285Z,3.23
2022-11-13T03:59:37.417Z,3.27
2022-11-13T04:00:37.408Z,3.25
2022-11-13T04:01:37.415Z,3.23
2022-11-13T04:02:37.341Z,3.31
2022-11-13T04:03:37.322Z,3.27
2022-11-13T04:04:37.291Z,3.24
2022-11-13T04:05:37.260Z,3.27
2022-11-13T04:06:37.307Z,3.25
2022-11-13T04:07:37.240Z,3.30
2022-11-13T04:08:37.278Z,3.24
2022-11-13T04:09:37.171Z,3.30
2022-11-13T04:10:37.132Z,3.27
2022-11-13T04:11:37.115Z,3.33
2022-11-13T04:12:37.085Z,3.21
2022-11-13T04:13:37.068Z,3.31
2022-11-13T04:14:37.027Z,3.24
2022-11-13T04:15:37.018Z,3.30
2022-11-13T04:16:36.983Z,3.30
2022-11-13T04:17:36.960Z,3.42
2022-11-13T04:18:36.929Z,3.31
2022-11-13T04:19:36.916Z,3.36
2022-11-13T04:20:36.876Z,3.34
2022-11-13T04:21:36.874Z,3.47
2022-11-13T04:22:36.827Z,3.44
2022-11-13T04:23:36.796Z,3.42
2022-11-13T04:24:36.860Z,3.46
2022-11-13T04:25:36.785Z,3.49
2022-11-13T04:26:36.732Z,3.44
2022-11-13T04:27:36.729Z,3.28
2022-11-13T04:28:36.673Z,3.40
2022-11-13T04:29:36.641Z,3.36
2022-11-13T04:30:36.613Z,3.40
2022-11-13T04:31:36.606Z,3.40
2022-11-13T04:32:36.582Z,3.34
2022-11-13T04:33:36.542Z,3.42
2022-11-13T04:34:36.519Z,3.42
2022-11-13T04:35:36.504Z,3.39
2022-11-13T04:36:36.463Z,3.49
2022-11-13T04:37:36.438Z,3.42
2022-11-13T04:38:36.427Z,3.44
2022-11-13T04:39:36.382Z,3.39
2022-11-13T04:40:36.451Z,3.44
2022-11-13T04:41:36.328Z,3.53
2022-11-13T04:42:36.318Z,3.44
2022-11-13T04:43:36.289Z,3.44
2022-11-13T04:44:36.257Z,3.42
2022-11-13T04:45:36.231Z,3.43
2022-11-13T04:46:36.202Z,3.44
2022-11-13T04:47:36.172Z,3.42
2022-11-13T04:48:36.160Z,3.47
2022-11-13T04:49:36.123Z,3.46
2022-11-13T04:50:36.103Z,3.40
2022-11-13T04:51:36.086Z,3.44
2022-11-13T04:52:36.044Z,3.47
2022-11-13T04:53:36.021Z,3.42
2022-11-13T04:54:35.994Z,3.43
2022-11-13T04:55:35.969Z,3.42
2022-11-13T04:56:36.038Z,3.40
2022-11-13T04:57:35.913Z,3.34
2022-11-13T04:58:35.890Z,3.39
2022-11-13T04:59:35.864Z,3.30
2022-11-13T05:00:35.839Z,3.28
2022-11-13T05:01:35.924Z,3.25
2022-11-13T05:02:35.785Z,3.24
2022-11-13T05:03:35.760Z,3.30
2022-11-13T05:04:35.756Z,3.27
2022-11-13T05:05:35.709Z,3.18
2022-11-13T05:06:35.689Z,3.12
2022-11-13T05:07:35.678Z,3.20
2022-11-13T05:08:35.632Z,3.06
2022-11-13T05:09:35.604Z,3.06
2022-11-13T05:10:35.591Z,3.09
2022-11-13T05:11:35.556Z,3.09
2022-11-13T05:12:35.626Z,3.09
2022-11-13T05:13:35.512Z,3.00
2022-11-13T05:14:35.477Z,3.05
2022-11-13T05:15:35.447Z,2.95
2022-11-13T05:16:35.423Z,3.06
2022-11-13T05:17:35.393Z,2.97
2022-11-13T05:18:35.399Z,2.91
2022-11-13T05:19:35.347Z,3.02
2022-11-13T05:20:35.315Z,3.02
2022-11-13T05:21:35.297Z,2.92
2022-11-13T05:22:35.277Z,2.94
2022-11-13T05:23:35.250Z,3.00
2022-11-13T05:24:35.226Z,2.89
2022-11-13T05:25:35.190Z,2.97
2022-11-13T05:26:35.188Z,2.89
2022-11-13T05:27:35.136Z,2.88
2022-11-13T05:28:35.211Z,2.89
2022-11-13T05:29:35.094Z,2.92
2022-11-13T05:30:35.063Z,2.91
2022-11-13T05:31:35.047Z,2.88
2022-11-13T05:32:35.016Z,2.87
2022-11-13T05:33:34.987Z,2.88
2022-11-13T05:34:34.973Z,2.82
2022-11-13T05:35:34.978Z,2.79
2022-11-13T05:36:34.906Z,2.79
2022-11-13T05:37:34.872Z,2.81
2022-11-13T05:38:34.857Z,2.74
2022-11-13T05:39:34.831Z,2.82
2022-11-13T05:40:34.827Z,2.71
2022-11-13T05:41:34.782Z,2.76
2022-11-13T05:42:34.761Z,2.63
2022-11-13T05:43:34.733Z,2.69
2022-11-13T05:44:34.810Z,2.67
2022-11-13T05:45:34.707Z,2.64
2022-11-13T05:46:34.642Z,2.59
2022-11-13T05:47:34.624Z,2.58
2022-11-13T05:48:34.600Z,2.61
2022-11-13T05:49:34.564Z,2.59
2022-11-13T05:50:34.548Z,2.55
2022-11-13T05:51:34.515Z,2.55
2022-11-13T05:52:34.500Z,2.52
2022-11-13T05:53:34.467Z,2.52
2022-11-13T05:54:34.435Z,2.56
2022-11-13T05:55:34.420Z,2.51
2022-11-13T05:56:34.388Z,2.56
2022-11-13T05:57:34.380Z,2.46
2022-11-13T05:58:34.343Z,2.48
2022-11-13T05:59:34.312Z,2.48
2022-11-13T06:00:34.378Z,2.48
2022-11-13T06:01:34.295Z,2.38
2022-11-13T06:02:34.229Z,2.37
2022-11-13T06:03:34.205Z,2.33
2022-11-13T06:04:34.182Z,2.40
2022-11-13T06:05:34.148Z,2.34
2022-11-13T06:06:34.125Z,2.37
2022-11-13T06:07:34.106Z,2.26
2022-11-13T06:08:34.073Z,2.30
2022-11-13T06:09:34.052Z,2.15
2022-11-13T06:10:34.018Z,2.26
2022-11-13T06:11:34.004Z,2.19
2022-11-13T06:12:33.964Z,2.20
2022-11-13T06:13:33.938Z,2.20
2022-11-13T06:14:33.917Z,2.12
2022-11-13T06:15:33.890Z,2.10
2022-11-13T06:16:33.964Z,2.09
2022-11-13T06:17:33.836Z,2.09
2022-11-13T06:18:34.112Z,2.10
2022-11-13T06:19:33.783Z,2.12
2022-11-13T06:20:33.763Z,2.09
2022-11-13T06:21:33.733Z,2.02
2022-11-13T06:22:33.702Z,2.08
2022-11-13T06:23:33.686Z,2.10
2022-11-13T06:24:33.648Z,1.97
2022-11-13T06:25:33.625Z,1.90
2022-11-13T06:26:33.604Z,1.89
2022-11-13T06:27:33.577Z,1.99
2022-11-13T06:28:33.554Z,1.85
2022-11-13T06:29:33.521Z,1.82
2022-11-13T06:30:33.496Z,1.87
2022-11-13T06:31:33.469Z,1.83
2022-11-13T06:32:33.541Z,1.76
2022-11-13T06:33:33.411Z,1.73
2022-11-13T06:34:33.462Z,1.73
2022-11-13T06:35:33.361Z,1.71
2022-11-13T06:36:33.361Z,1.68
2022-11-13T06:37:34.866Z,1.60
2022-11-13T06:38:33.369Z,1.62
2022-11-13T06:39:33.265Z,1.54
2022-11-13T06:40:33.233Z,1.57
2022-11-13T06:41:33.208Z,1.58
2022-11-13T06:42:33.180Z,1.54
2022-11-13T06:43:33.155Z,1.44
2022-11-13T06:44:33.124Z,1.40
2022-11-13T06:45:33.099Z,1.40
2022-11-13T06:46:33.072Z,1.51
2022-11-13T06:47:33.044Z,1.44
2022-11-13T06:48:33.122Z,1.52
2022-11-13T06:49:32.989Z,1.50
2022-11-13T06:50:32.972Z,1.50
2022-11-13T06:51:32.944Z,1.50
2022-11-13T06:52:32.928Z,1.54
2022-11-13T06:53:32.896Z,1.50
2022-11-13T06:54:32.868Z,1.51
2022-11-13T06:55:32.859Z,1.44
2022-11-13T06:56:32.810Z,1.51
2022-11-13T06:57:32.786Z,1.58
2022-11-13T06:58:32.763Z,1.61
2022-11-13T06:59:32.731Z,1.68
2022-11-13T07:00:36.641Z,1.71
2022-11-13T07:01:32.736Z,1.76
2022-11-13T07:02:32.658Z,1.75
2022-11-13T07:03:32.621Z,1.78
2022-11-13T07:04:32.698Z,1.72
2022-11-13T07:05:32.574Z,1.85
2022-11-13T07:06:37.547Z,1.89
2022-11-13T07:07:32.526Z,1.90
2022-11-13T07:08:32.491Z,1.90
2022-11-13T07:09:32.463Z,1.97
2022-11-13T07:10:32.436Z,2.06
2022-11-13T07:11:32.461Z,2.04
2022-11-13T07:12:32.390Z,2.08
2022-11-13T07:13:32.358Z,2.09
2022-11-13T07:14:32.350Z,2.16
2022-11-13T07:15:32.306Z,2.19
2022-11-13T07:16:56.373Z,2.23
2022-11-13T07:17:32.257Z,2.17
2022-11-13T07:18:32.228Z,2.19
2022-11-13T07:19:32.212Z,2.23
2022-11-13T07:20:32.272Z,2.37
2022-11-13T07:21:32.153Z,2.28
2022-11-13T07:22:32.128Z,2.37
2022-11-13T07:23:32.113Z,2.37
2022-11-13T07:24:32.073Z,2.35
2022-11-13T07:25:32.042Z,2.41
2022-11-13T07:26:32.024Z,2.40
2022-11-13T07:27:31.995Z,2.35
2022-11-13T07:28:32.021Z,2.34
2022-11-13T07:29:31.943Z,2.38
2022-11-13T07:30:31.921Z,2.48
2022-11-13T07:31:31.901Z,2.35
2022-11-13T07:32:31.868Z,2.41
2022-11-13T07:33:31.836Z,2.52
2022-11-13T07:34:31.807Z,2.53
2022-11-13T07:35:31.791Z,2.56
2022-11-13T07:36:31.854Z,2.69
2022-11-13T07:37:31.730Z,2.69
2022-11-13T07:38:32.022Z,2.79
2022-11-13T07:39:31.695Z,2.88
2022-11-13T07:40:31.655Z,2.97
2022-11-13T07:41:31.628Z,2.97
2022-11-13T07:42:31.607Z,2.94
2022-11-13T07:43:31.583Z,3.10
2022-11-13T07:44:53.376Z,3.10
2022-11-13T07:45:31.531Z,3.07
2022-11-13T07:46:31.496Z,3.12
2022-11-13T07:47:31.470Z,3.25
2022-11-13T07:48:31.949Z,3.24
2022-11-13T07:49:31.419Z,3.42
2022-11-13T07:50:31.403Z,3.46
2022-11-13T07:51:31.363Z,3.46
2022-11-13T07:52:31.432Z,3.53
2022-11-13T07:53:31.312Z,3.67
2022-11-13T07:54:31.286Z,3.75
2022-11-13T07:55:31.271Z,3.94
2022-11-13T07:56:31.245Z,4.29
2022-11-13T07:57:31.214Z,4.59
2022-11-13T07:58:31.683Z,4.94
2022-11-13T07:59:31.174Z,5.12
2022-11-13T08:00:31.137Z,5.34
2022-11-13T08:01:31.162Z,5.53
2022-11-13T08:02:31.088Z,5.71
2022-11-13T08:03:31.065Z,5.81
2022-11-13T08:04:31.034Z,5.52
2022-11-13T08:05:31.005Z,5.34
2022-11-13T08:06:30.991Z,5.02
2022-11-13T08:07:30.960Z,4.62
2022-11-13T08:08:31.345Z,4.47
2022-11-13T08:09:30.906Z,4.33
2022-11-13T08:10:30.994Z,4.21
2022-11-13T08:11:30.867Z,4.25
2022-11-13T08:12:30.833Z,4.25
2022-11-13T08:13:30.805Z,4.29
2022-11-13T08:14:30.779Z,4.33
2022-11-13T08:15:30.880Z,4.36
2022-11-13T08:16:30.730Z,4.36
2022-11-13T08:17:30.730Z,4.18
2022-11-13T08:18:31.230Z,4.16
2022-11-13T08:19:30.669Z,4.18
2022-11-13T08:20:30.769Z,4.21
2022-11-13T08:21:30.626Z,4.34
2022-11-13T08:22:30.607Z,4.43
2022-11-13T08:23:30.571Z,4.59
2022-11-13T08:24:30.711Z,4.76
2022-11-13T08:25:30.495Z,4.89
2022-11-13T08:26:30.474Z,4.88
2022-11-13T08:27:30.451Z,4.96
2022-11-13T08:28:30.795Z,4.92
2022-11-13T08:29:30.399Z,4.98
2022-11-13T08:30:30.371Z,5.05
2022-11-13T08:31:30.378Z,5.14
2022-11-13T08:32:30.344Z,5.13
2022-11-13T08:33:30.292Z,4.98
2022-11-13T08:34:30.268Z,4.86
2022-11-13T08:35:30.267Z,4.98
2022-11-13T08:36:30.214Z,4.86
2022-11-13T08:37:30.200Z,4.94
2022-11-13T08:38:30.561Z,5.04
2022-11-13T08:39:30.142Z,5.02
2022-11-13T08:40:30.208Z,5.07
2022-11-13T08:41:30.091Z,5.19
2022-11-13T08:42:30.068Z,5.38
2022-11-13T08:43:30.050Z,5.30
2022-11-13T08:44:30.016Z,5.46
2022-11-13T08:45:29.995Z,5.50
2022-11-13T08:46:29.965Z,5.63
2022-11-13T08:47:29.949Z,5.78
2022-11-13T08:48:30.260Z,5.85
2022-11-13T08:49:29.890Z,5.88
2022-11-13T08:50:29.868Z,5.57
2022-11-13T08:51:29.839Z,5.52
2022-11-13T08:52:29.837Z,5.67
2022-11-13T08:53:29.810Z,5.66
2022-11-13T08:54:29.765Z,5.78
2022-11-13T08:55:29.746Z,5.77
2022-11-13T08:56:29.805Z,5.70
2022-11-13T08:57:29.697Z,5.74
2022-11-13T08:58:29.860Z,5.82
2022-11-13T08:59:30.100Z,5.88
2022-11-13T09:02:23.034Z,6.30
2022-11-13T09:03:23.016Z,6.40
2022-11-13T09:04:22.961Z,6.35
2022-11-13T09:05:22.920Z,6.63
2022-11-13T09:06:22.885Z,6.59
2022-11-13T09:07:27.128Z,6.61
2022-11-13T09:08:22.848Z,6.50
2022-11-13T09:09:22.833Z,6.35
2022-11-13T09:10:22.795Z,6.32
2022-11-13T09:11:22.969Z,6.29
2022-11-13T09:12:22.835Z,6.16
2022-11-13T09:13:22.719Z,6.11
2022-11-13T09:14:22.724Z,6.18
2022-11-13T09:15:24.548Z,6.16
2022-11-13T09:16:22.676Z,6.33
2022-11-13T09:17:22.622Z,6.41
2022-11-13T09:18:22.612Z,6.35
2022-11-13T09:19:22.579Z,6.35
2022-11-13T09:20:23.233Z,6.32
2022-11-13T09:21:22.516Z,6.32
2022-11-13T09:22:22.493Z,6.29
2022-11-13T09:23:22.460Z,6.29
2022-11-13T09:24:22.448Z,6.46
2022-11-13T09:25:22.418Z,6.51
2022-11-13T09:26:22.384Z,6.59
2022-11-13T09:27:22.367Z,6.65
2022-11-13T09:28:22.436Z,6.86
2022-11-13T09:29:22.320Z,7.02
2022-11-13T09:30:22.379Z,7.09
2022-11-13T09:31:22.262Z,7.13
2022-11-13T09:32:22.256Z,7.08
2022-11-13T09:33:22.221Z,7.19
2022-11-13T09:34:22.182Z,7.24
2022-11-13T09:35:22.160Z,7.22
2022-11-13T09:36:22.140Z,7.23
2022-11-13T09:37:22.354Z,7.41
2022-11-13T09:38:22.126Z,7.66
2022-11-13T09:39:22.091Z,7.77
2022-11-13T09:40:22.099Z,8.11
2022-11-13T09:41:22.019Z,8.44
2022-11-13T09:42:21.998Z,8.53
2022-11-13T09:43:22.027Z,8.88
2022-11-13T09:44:22.057Z,9.23
2022-11-13T09:45:21.950Z,9.99
2022-11-13T09:46:21.945Z,10.78
2022-11-13T09:47:21.884Z,11.35
2022-11-13T09:48:21.841Z,11.89
2022-11-13T09:49:21.821Z,12.13
2022-11-13T09:50:21.879Z,12.54
2022-11-13T09:51:22.542Z,12.84
2022-11-13T09:52:21.752Z,12.89
2022-11-13T09:53:21.730Z,12.74
2022-11-13T09:54:21.711Z,12.19
2022-11-13T09:55:21.678Z,11.85
2022-11-13T09:56:21.660Z,11.57
2022-11-13T09:57:25.836Z,11.14
2022-11-13T09:58:21.608Z,11.50
2022-11-13T09:59:21.611Z,11.96
2022-11-13T10:00:21.797Z,12.09
2022-11-13T10:01:21.653Z,12.11
2022-11-13T10:02:21.533Z,12.54
2022-11-13T10:03:39.416Z,12.48
2022-11-13T10:04:21.461Z,12.89
2022-11-13T10:05:21.439Z,13.11
2022-11-13T10:06:21.437Z,13.30
2022-11-13T10:07:21.420Z,13.69
2022-11-13T10:08:21.374Z,13.95
2022-11-13T10:09:21.356Z,13.92
2022-11-13T10:10:21.429Z,13.89
2022-11-13T10:11:21.317Z,13.71
2022-11-13T10:12:21.284Z,13.77
2022-11-13T10:13:21.274Z,13.67
2022-11-13T10:14:21.252Z,13.95
2022-11-13T10:15:21.230Z,13.92
2022-11-13T10:16:21.311Z,13.79
2022-11-13T10:17:21.183Z,13.96
2022-11-13T10:18:21.151Z,14.14
2022-11-13T10:19:21.128Z,14.25
2022-11-13T10:20:21.112Z,13.07
2022-11-13T10:21:21.087Z,12.39
2022-11-13T10:22:36.315Z,12.49
2022-11-13T10:23:21.049Z,12.79
2022-11-13T10:24:21.034Z,12.77
2022-11-13T10:25:21.011Z,12.78
2022-11-13T10:26:21.009Z,12.48
2022-11-13T10:27:20.978Z,12.52
2022-11-13T10:28:48.723Z,12.60
2022-11-13T10:29:20.919Z,12.81
2022-11-13T10:30:21.023Z,13.06
2022-11-13T10:31:20.882Z,13.29
2022-11-13T10:32:20.956Z,13.62
2022-11-13T10:33:20.844Z,14.10
2022-11-13T10:34:20.830Z,14.39
2022-11-13T10:35:20.891Z,14.44
2022-11-13T10:36:20.852Z,14.72
2022-11-13T10:37:20.789Z,14.65
2022-11-13T10:38:20.788Z,14.52
2022-11-13T10:39:20.748Z,14.34
2022-11-13T10:40:20.725Z,13.67
2022-11-13T10:41:20.711Z,13.20
2022-11-13T10:42:20.696Z,12.71
2022-11-13T10:43:20.706Z,12.37
2022-11-13T10:44:20.691Z,11.93
2022-11-13T10:45:20.647Z,11.68
2022-11-13T10:46:20.623Z,11.57
2022-11-13T10:47:42.451Z,11.68
2022-11-13T10:48:20.650Z,11.61
2022-11-13T10:49:20.535Z,11.53
2022-11-13T10:50:20.525Z,11.02
2022-11-13T10:51:20.497Z,10.83
2022-11-13T10:52:20.475Z,10.56
2022-11-13T10:53:20.468Z,10.66
2022-11-13T10:54:20.465Z,10.95
2022-11-13T10:55:20.447Z,11.10
2022-11-13T10:56:20.398Z,11.32
2022-11-13T10:57:20.374Z,11.57
2022-11-13T10:58:20.369Z,11.74
2022-11-13T10:59:20.340Z,11.71
2022-11-13T11:00:20.327Z,11.67
2022-11-13T11:01:20.348Z,11.36
2022-11-13T11:02:20.295Z,11.03
2022-11-13T11:03:20.279Z,11.02
2022-11-13T11:04:20.337Z,10.98
2022-11-13T11:05:20.220Z,10.74
2022-11-13T11:06:20.213Z,10.40
2022-11-13T11:07:21.545Z,10.25
2022-11-13T11:08:20.160Z,10.36
2022-11-13T11:09:20.141Z,10.36
2022-11-13T11:10:20.121Z,10.34
2022-11-13T11:11:20.132Z,10.32
2022-11-13T11:12:22.094Z,10.40
2022-11-13T11:13:20.063Z,10.36
2022-11-13T11:14:20.040Z,10.30
2022-11-13T11:15:20.015Z,10.43
2022-11-13T11:16:19.992Z,10.56
2022-11-13T11:17:19.984Z,10.51
2022-11-13T11:18:19.965Z,10.42
2022-11-13T11:19:19.942Z,10.36
2022-11-13T11:20:20.005Z,10.32
2022-11-13T11:21:19.904Z,10.28
2022-11-13T11:22:19.874Z,10.32
2022-11-13T11:23:19.859Z,10.24
2022-11-13T11:24:19.833Z,10.40
2022-11-13T11:25:19.806Z,10.58
2022-11-13T11:26:19.797Z,10.66
2022-11-13T11:27:19.776Z,10.80
2022-11-13T11:28:19.748Z,10.88
2022-11-13T11:29:19.728Z,11.14
2022-11-13T11:30:19.710Z,11.27
2022-11-13T11:31:19.676Z,11.38
2022-11-13T11:32:19.675Z,11.64
2022-11-13T11:33:19.650Z,11.86
2022-11-13T11:34:19.617Z,12.24
2022-11-13T11:35:19.615Z,12.48
2022-11-13T11:36:19.675Z,12.52
2022-11-13T11:37:19.571Z,12.78
2022-11-13T11:38:19.543Z,12.54
2022-11-13T11:39:19.523Z,12.06
2022-11-13T11:40:19.509Z,12.11
2022-11-13T11:41:19.483Z,12.37
2022-11-13T11:42:19.461Z,12.78
2022-11-13T11:43:19.441Z,12.85
2022-11-13T11:44:19.430Z,13.03
2022-11-13T11:45:19.443Z,12.89
2022-11-13T11:46:19.394Z,12.97
2022-11-13T11:47:19.388Z,13.12
2022-11-13T11:48:19.353Z,13.40
2022-11-13T11:49:19.329Z,13.56
2022-11-13T11:50:19.306Z,13.52
2022-11-13T11:51:19.296Z,13.58
2022-11-13T11:52:19.365Z,13.52
2022-11-13T11:53:19.273Z,13.52
2022-11-13T11:54:19.234Z,13.21
2022-11-13T11:55:19.265Z,13.02
2022-11-13T11:56:19.213Z,13.29
2022-11-13T11:57:19.215Z,13.06
2022-11-13T11:58:19.172Z,13.07
2022-11-13T11:59:19.148Z,13.17
2022-11-13T12:00:19.139Z,13.46
2022-11-13T12:01:19.119Z,13.52
2022-11-13T12:02:19.142Z,13.69
2022-11-13T12:03:19.086Z,13.77
2022-11-13T12:04:19.092Z,13.61
2022-11-13T12:05:20.350Z,13.51
2022-11-13T12:06:19.039Z,13.46
2022-11-13T12:07:19.056Z,13.29
2022-11-13T12:08:19.093Z,13.21
2022-11-13T12:09:18.990Z,13.17
2022-11-13T12:10:18.966Z,13.12
2022-11-13T12:11:18.984Z,13.30
2022-11-13T12:12:18.929Z,13.56
2022-11-13T12:13:18.937Z,13.69
2022-11-13T12:14:18.900Z,13.95
2022-11-13T12:15:18.896Z,13.89
2022-11-13T12:16:22.311Z,13.92
2022-11-13T12:17:18.845Z,13.87
2022-11-13T12:18:18.852Z,13.80
2022-11-13T12:19:18.824Z,14.19
2022-11-13T12:20:18.797Z,14.13
2022-11-13T12:21:18.805Z,14.06
2022-11-13T12:22:18.771Z,14.06
2022-11-13T12:23:18.748Z,14.14
2022-11-13T12:24:18.826Z,14.32
2022-11-13T12:25:18.719Z,14.61
2022-11-13T12:26:18.694Z,14.64
2022-11-13T12:27:18.683Z,14.75
2022-11-13T12:28:18.670Z,14.72
2022-11-13T12:29:18.649Z,14.64
2022-11-13T12:30:18.642Z,14.27
2022-11-13T12:31:18.643Z,14.01
2022-11-13T12:32:18.603Z,14.06
2022-11-13T12:33:18.585Z,14.17
2022-11-13T12:34:18.587Z,13.84
2022-11-13T12:35:18.551Z,13.79
2022-11-13T12:36:18.546Z,13.79
2022-11-13T12:37:18.534Z,13.73
2022-11-13T12:38:18.509Z,13.74
2022-11-13T12:39:18.489Z,13.73
2022-11-13T12:40:18.559Z,13.88
2022-11-13T12:41:18.452Z,13.77
2022-11-13T12:42:18.437Z,13.79
2022-11-13T12:43:18.492Z,13.99
2022-11-13T12:44:18.403Z,13.88
2022-11-13T12:45:18.402Z,13.81
2022-11-13T12:46:18.364Z,13.73
2022-11-13T12:47:18.346Z,13.63
2022-11-13T12:48:18.330Z,13.52
2022-11-13T12:49:18.310Z,13.41
2022-11-13T12:50:18.298Z,13.44
2022-11-13T12:51:18.277Z,13.51
2022-11-13T12:52:18.256Z,13.46
2022-11-13T12:53:18.245Z,13.55
2022-11-13T12:54:18.228Z,13.59
2022-11-13T12:55:18.287Z,13.33
2022-11-13T12:56:18.298Z,13.30
2022-11-13T12:57:18.184Z,13.49
2022-11-13T12:58:18.160Z,13.56
2022-11-13T12:59:30.836Z,13.70
2022-11-13T13:00:18.104Z,13.92
2022-11-13T13:01:18.117Z,14.29
2022-11-13T13:02:18.067Z,14.46
2022-11-13T13:03:18.047Z,14.57
2022-11-13T13:04:18.027Z,14.74
2022-11-13T13:05:18.004Z,14.90
2022-11-13T13:06:18.013Z,15.20
2022-11-13T13:07:17.987Z,15.17
2022-11-13T13:08:17.959Z,15.41
2022-11-13T13:09:17.929Z,15.61
2022-11-13T13:10:17.919Z,15.79
2022-11-13T13:11:17.955Z,15.35
2022-11-13T13:12:17.968Z,15.43
2022-11-13T13:13:23.769Z,15.45